sensor_id;sensor_type;location;lat;lon;timestamp;P1;durP1;ratioP1;P2;durP2;ratioP2
67090;SDS011;54007;55.818;49.058;2023-04-07T00:01:38;3.70;;;1.15;;
67090;SDS011;54007;55.818;49.058;2023-04-07T00:04:04;4.87;;;1.30;;
67090;SDS011;54007;55.818;49.058;2023-04-07T00:06:30;3.60;;;1.20;;
67090;SDS011;54007;55.818;49.058;2023-04-07T00:08:56;4.60;;;1.40;;
67090;SDS011;54007;55.818;49.058;2023-04-07T00:11:22;4.10;;;1.32;;
67090;SDS011;54007;55.818;49.058;2023-04-07T00:13:48;4.25;;;1.20;;
67090;SDS011;54007;55.818;49.058;2023-04-07T00:16:14;4.35;;;1.40;;
67090;SDS011;54007;55.818;49.058;2023-04-07T09:22:36;20.17;;;3.00;;
67090;SDS011;54007;55.818;49.058;2023-04-07T09:27:36;8.13;;;2.35;;
67090;SDS011;54007;55.818;49.058;2023-04-07T09:30:12;8.60;;;2.70;;
67090;SDS011;54007;55.818;49.058;2023-04-07T09:32:37;28.60;;;2.80;;
67090;SDS011;54007;55.818;49.058;2023-04-07T09:35:03;10.95;;;2.55;;
67090;SDS011;54007;55.818;49.058;2023-04-07T09:37:29;10.55;;;3.02;;
67090;SDS011;54007;55.818;49.058;2023-04-07T09:39:55;9.00;;;3.20;;
67090;SDS011;54007;55.818;49.058;2023-04-07T09:42:21;14.50;;;2.42;;
67090;SDS011;54007;55.818;49.058;2023-04-07T09:44:46;14.93;;;3.00;;
67090;SDS011;54007;55.818;49.058;2023-04-07T09:47:12;10.13;;;2.50;;
67090;SDS011;54007;55.818;49.058;2023-04-07T09:49:48;9.25;;;3.55;;
67090;SDS011;54007;55.818;49.058;2023-04-07T09:52:13;9.55;;;2.92;;
67090;SDS011;54007;55.818;49.058;2023-04-07T09:54:40;12.57;;;3.10;;
67090;SDS011;54007;55.818;49.058;2023-04-07T09:57:09;14.55;;;2.90;;
67090;SDS011;54007;55.818;49.058;2023-04-07T09:59:34;12.85;;;5.10;;
67090;SDS011;54007;55.818;49.058;2023-04-07T10:02:00;8.57;;;3.20;;
67090;SDS011;54007;55.818;49.058;2023-04-07T10:04:26;9.73;;;2.60;;
67090;SDS011;54007;55.818;49.058;2023-04-07T10:06:55;5.92;;;2.10;;
67090;SDS011;54007;55.818;49.058;2023-04-07T10:09:24;9.00;;;2.50;;
67090;SDS011;54007;55.818;49.058;2023-04-07T10:11:46;5.12;;;1.92;;
67090;SDS011;54007;55.818;49.058;2023-04-07T10:14:12;12.23;;;2.50;;
67090;SDS011;54007;55.818;49.058;2023-04-07T10:16:38;13.27;;;5.83;;
67090;SDS011;54007;55.818;49.058;2023-04-07T10:19:04;9.80;;;3.92;;
67090;SDS011;54007;55.818;49.058;2023-04-07T10:21:30;10.55;;;4.70;;
67090;SDS011;54007;55.818;49.058;2023-04-07T10:24:00;11.67;;;4.30;;
67090;SDS011;54007;55.818;49.058;2023-04-07T10:26:25;11.40;;;3.70;;
67090;SDS011;54007;55.818;49.058;2023-04-07T10:28:52;16.75;;;6.37;;
67090;SDS011;54007;55.818;49.058;2023-04-07T10:31:16;13.47;;;5.70;;
67090;SDS011;54007;55.818;49.058;2023-04-07T10:36:15;17.12;;;4.55;;
67090;SDS011;54007;55.818;49.058;2023-04-07T10:43:57;9.83;;;3.20;;
67090;SDS011;54007;55.818;49.058;2023-04-07T10:46:23;10.82;;;4.08;;
67090;SDS011;54007;55.818;49.058;2023-04-07T10:49:08;12.03;;;3.30;;
67090;SDS011;54007;55.818;49.058;2023-04-07T10:51:33;11.03;;;2.83;;
67090;SDS011;54007;55.818;49.058;2023-04-07T10:54:20;11.25;;;2.77;;
67090;SDS011;54007;55.818;49.058;2023-04-07T10:56:25;12.00;;;4.63;;
67090;SDS011;54007;55.818;49.058;2023-04-07T10:59:12;7.87;;;2.70;;
67090;SDS011;54007;55.818;49.058;2023-04-07T11:01:17;6.90;;;2.47;;
67090;SDS011;54007;55.818;49.058;2023-04-07T11:03:52;7.50;;;2.10;;
67090;SDS011;54007;55.818;49.058;2023-04-07T11:06:17;8.15;;;2.25;;
67090;SDS011;54007;55.818;49.058;2023-04-07T11:08:44;8.60;;;2.33;;
67090;SDS011;54007;55.818;49.058;2023-04-07T11:11:10;10.60;;;2.60;;
67090;SDS011;54007;55.818;49.058;2023-04-07T11:13:45;11.60;;;2.55;;
67090;SDS011;54007;55.818;49.058;2023-04-07T11:16:10;7.83;;;2.15;;
67090;SDS011;54007;55.818;49.058;2023-04-07T11:18:36;23.97;;;2.67;;
67090;SDS011;54007;55.818;49.058;2023-04-07T11:21:02;6.72;;;2.27;;
67090;SDS011;54007;55.818;49.058;2023-04-07T11:23:28;10.32;;;2.75;;
67090;SDS011;54007;55.818;49.058;2023-04-07T11:26:00;7.13;;;2.50;;
67090;SDS011;54007;55.818;49.058;2023-04-07T11:28:25;10.23;;;2.35;;
67090;SDS011;54007;55.818;49.058;2023-04-07T11:30:52;9.95;;;2.35;;
67090;SDS011;54007;55.818;49.058;2023-04-07T11:33:21;6.10;;;2.90;;
67090;SDS011;54007;55.818;49.058;2023-04-07T11:35:47;11.53;;;3.30;;
67090;SDS011;54007;55.818;49.058;2023-04-07T11:38:12;9.40;;;4.53;;
67090;SDS011;54007;55.818;49.058;2023-04-07T11:40:38;10.72;;;3.47;;
67090;SDS011;54007;55.818;49.058;2023-04-07T11:43:20;7.93;;;3.20;;
67090;SDS011;54007;55.818;49.058;2023-04-07T11:45:45;13.60;;;3.42;;
67090;SDS011;54007;55.818;49.058;2023-04-07T11:48:31;14.13;;;3.20;;
67090;SDS011;54007;55.818;49.058;2023-04-07T11:50:52;12.83;;;3.20;;
67090;SDS011;54007;55.818;49.058;2023-04-07T11:53:29;8.38;;;2.50;;
67090;SDS011;54007;55.818;49.058;2023-04-07T11:56:01;9.13;;;3.10;;
67090;SDS011;54007;55.818;49.058;2023-04-07T11:58:26;12.53;;;3.67;;
67090;SDS011;54007;55.818;49.058;2023-04-07T12:00:55;7.90;;;2.60;;
67090;SDS011;54007;55.818;49.058;2023-04-07T12:03:18;8.88;;;2.42;;
67090;SDS011;54007;55.818;49.058;2023-04-07T12:05:44;7.87;;;2.40;;
67090;SDS011;54007;55.818;49.058;2023-04-07T12:08:10;6.42;;;2.65;;
67090;SDS011;54007;55.818;49.058;2023-04-07T12:10:35;10.40;;;2.47;;
67090;SDS011;54007;55.818;49.058;2023-04-07T12:13:02;7.10;;;2.50;;
67090;SDS011;54007;55.818;49.058;2023-04-07T12:15:27;8.05;;;2.67;;
67090;SDS011;54007;55.818;49.058;2023-04-07T12:17:53;7.00;;;3.70;;
67090;SDS011;54007;55.818;49.058;2023-04-07T12:20:19;15.25;;;3.77;;
67090;SDS011;54007;55.818;49.058;2023-04-07T12:22:45;8.85;;;2.95;;
67090;SDS011;54007;55.818;49.058;2023-04-07T12:25:11;10.03;;;3.77;;
67090;SDS011;54007;55.818;49.058;2023-04-07T12:27:37;14.23;;;4.17;;
67090;SDS011;54007;55.818;49.058;2023-04-07T12:30:02;13.65;;;3.10;;
67090;SDS011;54007;55.818;49.058;2023-04-07T12:32:28;10.17;;;3.10;;
67090;SDS011;54007;55.818;49.058;2023-04-07T12:34:54;14.18;;;3.20;;
67090;SDS011;54007;55.818;49.058;2023-04-07T12:37:20;7.20;;;3.25;;
67090;SDS011;54007;55.818;49.058;2023-04-07T12:39:46;10.35;;;2.87;;
67090;SDS011;54007;55.818;49.058;2023-04-07T12:42:12;18.12;;;3.15;;
67090;SDS011;54007;55.818;49.058;2023-04-07T12:44:38;12.05;;;2.67;;
67090;SDS011;54007;55.818;49.058;2023-04-07T12:47:04;10.10;;;3.07;;
67090;SDS011;54007;55.818;49.058;2023-04-07T12:49:29;9.10;;;2.83;;
67090;SDS011;54007;55.818;49.058;2023-04-07T12:51:55;9.05;;;3.02;;
67090;SDS011;54007;55.818;49.058;2023-04-07T12:54:21;11.10;;;3.15;;
67090;SDS011;54007;55.818;49.058;2023-04-07T12:56:47;11.05;;;2.77;;
67090;SDS011;54007;55.818;49.058;2023-04-07T12:59:13;12.50;;;3.33;;
67090;SDS011;54007;55.818;49.058;2023-04-07T13:01:39;9.03;;;3.40;;
67090;SDS011;54007;55.818;49.058;2023-04-07T13:04:04;9.83;;;3.22;;
67090;SDS011;54007;55.818;49.058;2023-04-07T13:06:30;9.93;;;3.30;;
67090;SDS011;54007;55.818;49.058;2023-04-07T13:08:56;11.80;;;3.40;;
67090;SDS011;54007;55.818;49.058;2023-04-07T13:11:22;21.23;;;3.50;;
67090;SDS011;54007;55.818;49.058;2023-04-07T13:13:54;10.78;;;3.40;;
67090;SDS011;54007;55.818;49.058;2023-04-07T13:16:20;12.05;;;2.80;;
67090;SDS011;54007;55.818;49.058;2023-04-07T13:18:46;10.23;;;3.10;;
67090;SDS011;54007;55.818;49.058;2023-04-07T13:21:12;8.45;;;3.02;;
67090;SDS011;54007;55.818;49.058;2023-04-07T13:23:38;10.68;;;2.80;;
67090;SDS011;54007;55.818;49.058;2023-04-07T13:26:04;6.10;;;2.50;;
67090;SDS011;54007;55.818;49.058;2023-04-07T13:28:30;9.63;;;2.50;;
67090;SDS011;54007;55.818;49.058;2023-04-07T13:30:55;10.18;;;2.92;;
67090;SDS011;54007;55.818;49.058;2023-04-07T13:33:21;11.50;;;2.80;;
67090;SDS011;54007;55.818;49.058;2023-04-07T13:35:47;11.80;;;2.35;;
67090;SDS011;54007;55.818;49.058;2023-04-07T13:38:13;7.58;;;2.58;;
67090;SDS011;54007;55.818;49.058;2023-04-07T13:40:39;12.78;;;2.60;;
67090;SDS011;54007;55.818;49.058;2023-04-07T13:43:05;9.80;;;2.72;;
67090;SDS011;54007;55.818;49.058;2023-04-07T13:45:31;9.10;;;2.70;;
67090;SDS011;54007;55.818;49.058;2023-04-07T13:47:57;6.95;;;2.90;;
67090;SDS011;54007;55.818;49.058;2023-04-07T13:50:23;16.40;;;3.17;;
67090;SDS011;54007;55.818;49.058;2023-04-07T13:52:48;13.45;;;2.80;;
67090;SDS011;54007;55.818;49.058;2023-04-07T13:55:14;16.37;;;3.30;;
67090;SDS011;54007;55.818;49.058;2023-04-07T13:57:40;7.67;;;3.08;;
67090;SDS011;54007;55.818;49.058;2023-04-07T14:00:06;10.63;;;2.60;;
67090;SDS011;54007;55.818;49.058;2023-04-07T14:02:32;6.72;;;2.33;;
67090;SDS011;54007;55.818;49.058;2023-04-07T14:04:58;10.93;;;2.40;;
67090;SDS011;54007;55.818;49.058;2023-04-07T14:07:24;10.17;;;2.60;;
67090;SDS011;54007;55.818;49.058;2023-04-07T14:09:50;6.33;;;2.33;;
67090;SDS011;54007;55.818;49.058;2023-04-07T14:12:16;11.12;;;2.60;;
67090;SDS011;54007;55.818;49.058;2023-04-07T14:14:42;8.97;;;2.40;;
67090;SDS011;54007;55.818;49.058;2023-04-07T14:17:08;13.55;;;2.37;;
67090;SDS011;54007;55.818;49.058;2023-04-07T14:19:33;9.18;;;2.30;;
67090;SDS011;54007;55.818;49.058;2023-04-07T14:21:59;7.53;;;2.50;;
67090;SDS011;54007;55.818;49.058;2023-04-07T14:24:25;15.75;;;3.00;;
67090;SDS011;54007;55.818;49.058;2023-04-07T14:26:55;8.78;;;2.40;;
67090;SDS011;54007;55.818;49.058;2023-04-07T14:29:21;10.27;;;2.80;;
67090;SDS011;54007;55.818;49.058;2023-04-07T14:31:53;7.83;;;2.83;;
67090;SDS011;54007;55.818;49.058;2023-04-07T14:34:19;13.93;;;2.90;;
67090;SDS011;54007;55.818;49.058;2023-04-07T14:36:54;10.47;;;2.60;;
67090;SDS011;54007;55.818;49.058;2023-04-07T14:39:20;8.83;;;2.52;;
67090;SDS011;54007;55.818;49.058;2023-04-07T14:41:45;7.72;;;3.27;;
67090;SDS011;54007;55.818;49.058;2023-04-07T14:44:11;8.70;;;2.60;;
67090;SDS011;54007;55.818;49.058;2023-04-07T14:46:37;12.65;;;2.80;;
67090;SDS011;54007;55.818;49.058;2023-04-07T14:49:03;11.60;;;2.20;;
67090;SDS011;54007;55.818;49.058;2023-04-07T14:51:29;6.90;;;2.40;;
67090;SDS011;54007;55.818;49.058;2023-04-07T14:53:55;17.85;;;3.20;;
67090;SDS011;54007;55.818;49.058;2023-04-07T14:56:21;6.65;;;2.25;;
67090;SDS011;54007;55.818;49.058;2023-04-07T14:58:47;9.93;;;2.50;;
67090;SDS011;54007;55.818;49.058;2023-04-07T15:01:13;8.98;;;2.58;;
67090;SDS011;54007;55.818;49.058;2023-04-07T15:03:38;12.45;;;3.10;;
67090;SDS011;54007;55.818;49.058;2023-04-07T15:06:08;8.83;;;3.03;;
67090;SDS011;54007;55.818;49.058;2023-04-07T15:08:33;13.62;;;2.83;;
67090;SDS011;54007;55.818;49.058;2023-04-07T15:10:59;7.05;;;2.65;;
67090;SDS011;54007;55.818;49.058;2023-04-07T15:13:25;12.73;;;2.57;;
67090;SDS011;54007;55.818;49.058;2023-04-07T15:15:51;12.47;;;2.75;;
67090;SDS011;54007;55.818;49.058;2023-04-07T15:18:16;8.55;;;3.15;;
67090;SDS011;54007;55.818;49.058;2023-04-07T15:20:42;11.33;;;3.37;;
67090;SDS011;54007;55.818;49.058;2023-04-07T15:23:08;15.50;;;3.40;;
67090;SDS011;54007;55.818;49.058;2023-04-07T15:25:34;11.83;;;2.90;;
67090;SDS011;54007;55.818;49.058;2023-04-07T15:28:00;11.35;;;2.90;;
67090;SDS011;54007;55.818;49.058;2023-04-07T15:30:26;13.50;;;2.80;;
67090;SDS011;54007;55.818;49.058;2023-04-07T15:32:58;9.17;;;3.10;;
67090;SDS011;54007;55.818;49.058;2023-04-07T15:35:24;14.13;;;3.20;;
67090;SDS011;54007;55.818;49.058;2023-04-07T15:37:50;11.73;;;2.67;;
67090;SDS011;54007;55.818;49.058;2023-04-07T15:40:15;20.77;;;3.10;;
67090;SDS011;54007;55.818;49.058;2023-04-07T15:42:41;9.70;;;2.80;;
67090;SDS011;54007;55.818;49.058;2023-04-07T15:45:11;12.30;;;2.87;;
67090;SDS011;54007;55.818;49.058;2023-04-07T15:47:37;13.28;;;2.70;;
67090;SDS011;54007;55.818;49.058;2023-04-07T15:50:09;11.70;;;2.98;;
67090;SDS011;54007;55.818;49.058;2023-04-07T15:52:35;11.43;;;3.10;;
67090;SDS011;54007;55.818;49.058;2023-04-07T15:55:00;15.50;;;3.50;;
67090;SDS011;54007;55.818;49.058;2023-04-07T15:57:26;7.22;;;2.60;;
67090;SDS011;54007;55.818;49.058;2023-04-07T15:59:52;11.85;;;2.67;;
67090;SDS011;54007;55.818;49.058;2023-04-07T16:02:18;11.10;;;2.80;;
67090;SDS011;54007;55.818;49.058;2023-04-07T16:04:44;10.03;;;3.25;;
67090;SDS011;54007;55.818;49.058;2023-04-07T16:07:10;12.60;;;3.03;;
67090;SDS011;54007;55.818;49.058;2023-04-07T16:09:35;9.15;;;3.20;;
67090;SDS011;54007;55.818;49.058;2023-04-07T16:12:01;10.98;;;3.33;;
67090;SDS011;54007;55.818;49.058;2023-04-07T16:14:27;15.33;;;3.50;;
67090;SDS011;54007;55.818;49.058;2023-04-07T16:16:53;14.13;;;3.08;;
67090;SDS011;54007;55.818;49.058;2023-04-07T16:19:19;9.80;;;3.47;;
67090;SDS011;54007;55.818;49.058;2023-04-07T16:21:45;15.55;;;3.50;;
67090;SDS011;54007;55.818;49.058;2023-04-07T16:24:11;12.23;;;3.20;;
67090;SDS011;54007;55.818;49.058;2023-04-07T16:26:36;12.70;;;3.37;;
67090;SDS011;54007;55.818;49.058;2023-04-07T16:29:02;13.45;;;3.77;;
67090;SDS011;54007;55.818;49.058;2023-04-07T16:31:28;14.53;;;3.65;;
67090;SDS011;54007;55.818;49.058;2023-04-07T16:33:54;11.88;;;3.80;;
67090;SDS011;54007;55.818;49.058;2023-04-07T16:36:20;12.73;;;4.20;;
67090;SDS011;54007;55.818;49.058;2023-04-07T16:38:46;16.37;;;3.77;;
67090;SDS011;54007;55.818;49.058;2023-04-07T16:41:11;12.85;;;3.65;;
67090;SDS011;54007;55.818;49.058;2023-04-07T16:43:37;15.58;;;3.70;;
67090;SDS011;54007;55.818;49.058;2023-04-07T16:46:03;12.33;;;3.70;;
67090;SDS011;54007;55.818;49.058;2023-04-07T16:48:29;10.45;;;2.92;;
67090;SDS011;54007;55.818;49.058;2023-04-07T16:50:55;13.25;;;3.62;;
67090;SDS011;54007;55.818;49.058;2023-04-07T16:53:21;13.37;;;3.67;;
67090;SDS011;54007;55.818;49.058;2023-04-07T16:55:47;11.15;;;3.83;;
67090;SDS011;54007;55.818;49.058;2023-04-07T16:58:13;11.25;;;3.60;;
67090;SDS011;54007;55.818;49.058;2023-04-07T17:00:39;15.13;;;3.47;;
67090;SDS011;54007;55.818;49.058;2023-04-07T17:03:05;13.80;;;3.90;;
67090;SDS011;54007;55.818;49.058;2023-04-07T17:05:31;14.70;;;4.08;;
67090;SDS011;54007;55.818;49.058;2023-04-07T17:08:05;13.73;;;4.40;;
67090;SDS011;54007;55.818;49.058;2023-04-07T17:10:31;18.05;;;4.33;;
67090;SDS011;54007;55.818;49.058;2023-04-07T17:12:57;14.60;;;3.72;;
67090;SDS011;54007;55.818;49.058;2023-04-07T17:15:23;16.90;;;4.28;;
67090;SDS011;54007;55.818;49.058;2023-04-07T17:17:49;13.33;;;4.53;;
67090;SDS011;54007;55.818;49.058;2023-04-07T17:20:15;16.25;;;4.40;;
67090;SDS011;54007;55.818;49.058;2023-04-07T17:22:41;13.32;;;3.83;;
67090;SDS011;54007;55.818;49.058;2023-04-07T17:25:07;13.97;;;4.33;;
67090;SDS011;54007;55.818;49.058;2023-04-07T17:27:33;15.85;;;3.80;;
67090;SDS011;54007;55.818;49.058;2023-04-07T17:29:59;15.00;;;4.20;;
67090;SDS011;54007;55.818;49.058;2023-04-07T17:32:28;12.68;;;4.20;;
67090;SDS011;54007;55.818;49.058;2023-04-07T17:34:51;17.57;;;4.45;;
67090;SDS011;54007;55.818;49.058;2023-04-07T17:37:17;15.88;;;3.90;;
67090;SDS011;54007;55.818;49.058;2023-04-07T17:39:42;13.98;;;4.28;;
67090;SDS011;54007;55.818;49.058;2023-04-07T17:42:10;14.90;;;4.00;;
67090;SDS011;54007;55.818;49.058;2023-04-07T17:44:36;16.17;;;3.80;;
67090;SDS011;54007;55.818;49.058;2023-04-07T17:47:01;13.40;;;4.00;;
67090;SDS011;54007;55.818;49.058;2023-04-07T17:49:27;17.83;;;4.77;;
67090;SDS011;54007;55.818;49.058;2023-04-07T17:51:53;19.60;;;4.50;;
67090;SDS011;54007;55.818;49.058;2023-04-07T17:54:19;19.50;;;5.05;;
67090;SDS011;54007;55.818;49.058;2023-04-07T17:56:45;17.20;;;5.30;;
67090;SDS011;54007;55.818;49.058;2023-04-07T17:59:11;18.98;;;5.22;;
67090;SDS011;54007;55.818;49.058;2023-04-07T18:01:36;13.90;;;4.80;;
67090;SDS011;54007;55.818;49.058;2023-04-07T18:04:02;17.87;;;4.70;;
67090;SDS011;54007;55.818;49.058;2023-04-07T18:06:28;16.45;;;5.00;;
67090;SDS011;54007;55.818;49.058;2023-04-07T18:08:54;24.67;;;5.50;;
67090;SDS011;54007;55.818;49.058;2023-04-07T18:11:20;15.32;;;5.00;;
67090;SDS011;54007;55.818;49.058;2023-04-07T18:13:46;19.87;;;4.85;;
67090;SDS011;54007;55.818;49.058;2023-04-07T18:19:21;21.25;;;5.20;;
67090;SDS011;54007;55.818;49.058;2023-04-07T18:21:46;15.93;;;5.20;;
67090;SDS011;54007;55.818;49.058;2023-04-07T18:24:18;16.75;;;5.40;;
67090;SDS011;54007;55.818;49.058;2023-04-07T18:26:46;18.30;;;5.15;;
67090;SDS011;54007;55.818;49.058;2023-04-07T18:29:12;20.15;;;5.83;;
67090;SDS011;54007;55.818;49.058;2023-04-07T18:31:38;14.47;;;5.10;;
67090;SDS011;54007;55.818;49.058;2023-04-07T18:34:03;19.35;;;5.58;;
